createdAt,value
2023-02-13T00:00:59.472Z,-0.20
2023-02-13T00:03:27.691Z,-0.45
2023-02-13T00:05:55.634Z,-0.13
2023-02-13T00:08:23.459Z,-0.16
2023-02-13T00:10:51.344Z,-0.16
2023-02-13T00:13:19.198Z,-0.20
2023-02-13T00:15:56.679Z,-0.21
2023-02-13T00:18:24.665Z,-0.17
2023-02-13T00:21:00.091Z,-0.17
2023-02-13T00:23:28.222Z,-0.14
2023-02-13T00:25:56.182Z,-0.49
2023-02-13T00:28:24.091Z,-0.27
2023-02-13T00:30:53.909Z,-0.05
2023-02-13T00:33:21.803Z,-0.26
2023-02-13T00:35:49.681Z,-0.09
2023-02-13T00:38:17.507Z,-0.15
2023-02-13T00:40:45.383Z,-0.20
2023-02-13T00:43:13.252Z,-0.61
2023-02-13T00:45:41.126Z,-0.28
2023-02-13T00:48:10.334Z,-0.23
2023-02-13T00:50:38.196Z,-0.24
2023-02-13T00:53:06.070Z,-0.20
2023-02-13T00:55:35.373Z,-0.26
2023-02-13T00:58:03.311Z,-0.21
2023-02-13T01:00:31.217Z,-0.19
2023-02-13T01:02:59.078Z,-0.14
2023-02-13T01:05:29.146Z,-0.16
2023-02-13T01:07:57.060Z,-0.08
2023-02-13T01:10:24.987Z,-0.20
2023-02-13T01:12:53.240Z,-0.01
2023-02-13T01:15:21.246Z,-0.48
2023-02-13T01:17:49.094Z,-0.34
2023-02-13T01:20:18.752Z,-0.34
2023-02-13T01:22:48.029Z,-0.53
2023-02-13T01:25:15.927Z,-0.74
2023-02-13T01:27:43.838Z,-0.66
2023-02-13T01:30:13.916Z,-0.69
2023-02-13T01:32:42.686Z,-0.60
2023-02-13T01:35:11.983Z,-0.60
2023-02-13T01:37:40.097Z,-0.65
2023-02-13T01:40:13.619Z,-0.80
2023-02-13T01:42:42.255Z,-0.94
2023-02-13T01:45:25.050Z,-1.04
2023-02-13T01:47:57.375Z,-1.14
2023-02-13T01:50:31.172Z,-1.24
2023-02-13T01:53:03.161Z,-1.13
2023-02-13T01:55:34.058Z,-1.18
2023-02-13T01:58:05.979Z,-1.09
2023-02-13T02:00:35.087Z,-1.22
2023-02-13T02:03:08.593Z,-1.19
2023-02-13T02:05:38.149Z,-1.26
2023-02-13T02:08:10.893Z,-1.34
2023-02-13T02:10:41.031Z,-1.04
2023-02-13T02:13:12.564Z,-1.07
2023-02-13T02:15:42.315Z,-1.17
2023-02-13T02:18:15.455Z,-0.87
2023-02-13T02:21:07.010Z,-0.79
2023-02-13T02:24:04.797Z,-0.78
2023-02-13T02:27:07.269Z,-0.57
2023-02-13T02:30:06.463Z,-0.70
2023-02-13T02:33:03.598Z,-0.43
2023-02-13T02:35:40.197Z,-0.39
2023-02-13T02:38:18.994Z,-0.41
2023-02-13T02:41:02.714Z,-0.37
2023-02-13T02:43:43.360Z,-0.37
2023-02-13T02:46:18.371Z,-0.33
2023-02-13T02:49:12.969Z,-0.39
2023-02-13T02:51:49.659Z,-0.40
2023-02-13T02:54:42.986Z,-0.54
2023-02-13T02:57:16.031Z,-0.50
2023-02-13T03:00:02.973Z,-0.59
2023-02-13T03:03:04.249Z,-0.80
2023-02-13T03:05:54.834Z,-1.03
2023-02-13T03:08:42.927Z,-1.14
2023-02-13T03:11:28.173Z,-1.17
2023-02-13T03:13:58.448Z,-1.23
2023-02-13T03:16:43.788Z,-1.32
2023-02-13T03:19:36.596Z,-1.42
2023-02-13T03:22:19.565Z,-1.52
2023-02-13T03:24:54.450Z,-1.56
2023-02-13T03:27:52.882Z,-1.65
2023-02-13T03:30:30.706Z,-1.73
2023-02-13T03:33:12.460Z,-1.62
2023-02-13T03:36:03.508Z,-1.63
2023-02-13T03:38:43.645Z,-1.71
2023-02-13T03:41:19.908Z,-1.68
2023-02-13T03:43:56.473Z,-1.72
2023-02-13T03:46:27.498Z,-1.75
2023-02-13T03:49:14.714Z,-1.92
2023-02-13T03:51:49.319Z,-1.78
2023-02-13T03:54:42.334Z,-2.14
2023-02-13T03:57:30.831Z,-1.82
2023-02-13T03:59:59.761Z,-1.89
2023-02-13T04:02:34.847Z,-1.90
2023-02-13T04:05:10.178Z,-1.94
2023-02-13T04:07:38.054Z,-2.17
2023-02-13T04:10:11.303Z,-2.16
2023-02-13T04:12:43.897Z,-2.21
2023-02-13T04:15:17.606Z,-2.17
2023-02-13T04:17:50.082Z,-2.02
2023-02-13T04:20:18.200Z,-2.00
2023-02-13T04:22:47.820Z,-2.10
2023-02-13T04:25:18.804Z,-2.24
2023-02-13T04:27:46.767Z,-2.24
2023-02-13T04:30:15.622Z,-2.48
2023-02-13T04:32:43.491Z,-2.22
2023-02-13T04:35:13.760Z,-2.21
2023-02-13T04:37:41.686Z,-2.39
2023-02-13T04:40:10.818Z,-2.57
2023-02-13T04:42:40.036Z,-2.18
2023-02-13T04:45:08.454Z,-2.17
2023-02-13T04:47:36.330Z,-1.95
2023-02-13T04:50:04.279Z,-1.97
2023-02-13T04:52:32.354Z,-2.02
2023-02-13T04:55:00.248Z,-1.99
2023-02-13T04:57:28.102Z,-1.96
2023-02-13T04:59:57.604Z,-1.92
2023-02-13T05:02:25.458Z,-1.91
2023-02-13T05:04:53.388Z,-2.00
2023-02-13T05:07:21.253Z,-1.96
2023-02-13T05:09:49.103Z,-1.97
2023-02-13T05:12:17.038Z,-1.95
2023-02-13T05:14:45.210Z,-1.90
2023-02-13T05:17:14.438Z,-1.98
2023-02-13T05:19:42.335Z,-2.27
2023-02-13T05:22:29.454Z,-2.14
2023-02-13T05:24:58.556Z,-1.96
2023-02-13T05:27:26.496Z,-1.97
2023-02-13T05:29:54.391Z,-1.98
2023-02-13T05:32:23.618Z,-2.10
2023-02-13T05:34:51.433Z,-1.95
2023-02-13T05:37:19.253Z,-1.97
2023-02-13T05:39:47.099Z,-2.09
2023-02-13T05:42:15.024Z,-2.01
2023-02-13T05:44:42.966Z,-1.94
2023-02-13T05:47:10.898Z,-1.84
2023-02-13T05:49:40.115Z,-1.80
2023-02-13T05:52:07.973Z,-1.72
2023-02-13T05:54:36.167Z,-1.54
2023-02-13T05:57:04.233Z,-1.54
2023-02-13T05:59:32.070Z,-1.54
2023-02-13T06:02:00.045Z,-1.64
2023-02-13T06:04:28.380Z,-1.40
2023-02-13T06:06:57.828Z,-1.33
2023-02-13T06:09:25.715Z,-1.27
2023-02-13T06:11:53.718Z,-1.43
2023-02-13T06:14:21.705Z,-1.44
2023-02-13T06:16:49.648Z,-1.35
2023-02-13T06:19:19.085Z,-1.38
2023-02-13T06:21:46.986Z,-1.22
2023-02-13T06:24:16.303Z,-1.14
2023-02-13T06:26:44.178Z,-0.98
2023-02-13T06:29:12.959Z,-1.02
2023-02-13T06:31:40.976Z,-0.97
2023-02-13T06:34:09.237Z,-0.92
2023-02-13T06:36:37.605Z,-0.87
2023-02-13T06:39:06.219Z,-0.85
2023-02-13T06:41:35.655Z,-0.66
2023-02-13T06:44:03.554Z,-0.66
2023-02-13T06:46:31.478Z,-0.47
2023-02-13T06:48:59.452Z,-0.40
2023-02-13T06:51:27.422Z,-0.32
2023-02-13T06:53:55.256Z,-0.21
2023-02-13T06:56:23.297Z,-0.13
2023-02-13T06:58:52.564Z,0.04
2023-02-13T07:01:20.524Z,0.25
2023-02-13T07:03:48.845Z,0.36
2023-02-13T07:06:19.630Z,0.84
2023-02-13T07:08:47.527Z,1.50
2023-02-13T07:11:19.492Z,1.72
2023-02-13T07:13:49.776Z,2.33
2023-02-13T07:16:19.954Z,2.35
2023-02-13T07:18:48.374Z,2.22
2023-02-13T07:21:16.307Z,1.96
2023-02-13T07:23:44.150Z,1.63
2023-02-13T07:26:12.277Z,1.33
2023-02-13T07:28:40.277Z,1.24
2023-02-13T07:31:08.690Z,1.28
2023-02-13T07:33:38.143Z,0.99
2023-02-13T07:36:09.448Z,0.66
2023-02-13T07:38:37.350Z,0.66
2023-02-13T07:41:05.853Z,0.91
2023-02-13T07:43:34.041Z,1.39
2023-02-13T07:46:03.144Z,2.03
2023-02-13T07:48:31.772Z,2.10
2023-02-13T07:51:03.798Z,1.77
2023-02-13T07:53:31.826Z,1.51
2023-02-13T07:55:59.842Z,1.29
2023-02-13T07:58:27.992Z,1.07
2023-02-13T08:00:55.948Z,0.86
2023-02-13T08:03:23.933Z,0.90
2023-02-13T08:05:51.809Z,1.15
2023-02-13T08:08:21.244Z,1.26
2023-02-13T08:11:05.841Z,1.43
2023-02-13T08:13:34.062Z,1.52
2023-02-13T08:16:01.987Z,1.47
2023-02-13T08:18:29.834Z,1.45
2023-02-13T08:20:57.708Z,1.41
2023-02-13T08:23:27.260Z,1.53
2023-02-13T08:25:55.961Z,1.53
2023-02-13T08:28:24.018Z,1.39
2023-02-13T08:30:51.971Z,1.44
2023-02-13T08:33:19.946Z,1.49
2023-02-13T08:35:47.820Z,1.51
2023-02-13T08:38:15.710Z,1.78
2023-02-13T08:40:44.977Z,2.01
2023-02-13T08:43:16.609Z,2.17
2023-02-13T08:45:44.509Z,2.11
2023-02-13T08:48:12.308Z,2.43
2023-02-13T08:50:40.232Z,2.35
2023-02-13T08:53:08.260Z,2.43
2023-02-13T08:55:36.259Z,2.59
2023-02-13T08:58:06.282Z,2.72
2023-02-13T09:00:34.508Z,2.93
2023-02-13T09:03:03.300Z,2.67
2023-02-13T09:05:33.014Z,2.44
2023-02-13T09:08:02.897Z,2.39
2023-02-13T09:10:31.111Z,2.47
2023-02-13T09:12:59.061Z,2.74
2023-02-13T09:15:28.485Z,2.74
2023-02-13T09:17:56.500Z,3.02
2023-02-13T09:20:24.630Z,3.13
2023-02-13T09:22:52.769Z,3.04
2023-02-13T09:25:21.710Z,2.86
2023-02-13T09:27:49.742Z,2.94
2023-02-13T09:30:23.583Z,2.75
2023-02-13T09:32:54.300Z,2.89
2023-02-13T09:35:23.529Z,2.98
2023-02-13T09:37:51.528Z,3.11
2023-02-13T09:40:25.579Z,3.26
2023-02-13T09:42:56.593Z,3.43
2023-02-13T09:45:25.779Z,3.49
2023-02-13T09:47:55.643Z,3.73
2023-02-13T09:50:27.968Z,3.67
2023-02-13T09:52:58.094Z,3.95
2023-02-13T09:55:30.895Z,3.93
2023-02-13T09:58:04.394Z,4.04
2023-02-13T10:00:37.324Z,4.31
2023-02-13T10:03:29.888Z,4.29
2023-02-13T10:06:06.882Z,4.34
2023-02-13T10:08:52.191Z,4.22
2023-02-13T10:11:41.774Z,4.54
2023-02-13T10:14:16.542Z,4.40
2023-02-13T10:16:46.759Z,4.63
2023-02-13T10:19:30.424Z,5.67
2023-02-13T10:22:02.037Z,6.29
2023-02-13T10:24:37.500Z,6.85
2023-02-13T10:27:18.496Z,6.47
2023-02-13T10:30:09.603Z,6.60
2023-02-13T10:32:43.884Z,6.69
2023-02-13T10:35:21.806Z,6.83
2023-02-13T10:37:53.096Z,7.30
2023-02-13T10:40:21.517Z,6.94
2023-02-13T10:42:59.937Z,7.17
2023-02-13T10:45:58.675Z,7.24
2023-02-13T10:48:48.608Z,7.58
2023-02-13T10:51:26.327Z,7.46
2023-02-13T10:54:11.598Z,7.76
2023-02-13T10:56:44.923Z,7.94
2023-02-13T10:59:36.302Z,7.57
2023-02-13T11:02:22.611Z,8.26
2023-02-13T11:04:52.339Z,8.53
2023-02-13T11:07:24.612Z,8.21
2023-02-13T11:09:56.130Z,7.95
2023-02-13T11:12:29.438Z,7.99
2023-02-13T11:14:58.958Z,8.56
2023-02-13T11:17:29.906Z,9.09
2023-02-13T11:19:59.479Z,9.19
2023-02-13T11:22:33.681Z,8.91
2023-02-13T11:25:05.493Z,9.12
2023-02-13T11:27:35.518Z,9.13
2023-02-13T11:30:07.140Z,9.32
2023-02-13T11:32:36.380Z,9.39
2023-02-13T11:35:28.617Z,9.20
2023-02-13T11:38:21.877Z,8.79
2023-02-13T11:40:52.921Z,8.68
2023-02-13T11:43:28.028Z,9.33
2023-02-13T11:46:04.839Z,9.02
2023-02-13T11:48:33.108Z,9.00
2023-02-13T11:51:01.316Z,9.01
2023-02-13T11:53:32.684Z,9.41
2023-02-13T11:56:07.929Z,9.58
2023-02-13T11:58:36.620Z,9.05
2023-02-13T12:01:28.375Z,10.00
2023-02-13T12:04:08.348Z,9.85
2023-02-13T12:06:40.575Z,10.13
2023-02-13T12:09:16.635Z,10.15
2023-02-13T12:11:49.817Z,10.14
2023-02-13T12:14:22.448Z,10.32
2023-02-13T12:16:54.025Z,10.17
2023-02-13T12:19:27.154Z,10.26
2023-02-13T12:22:08.462Z,10.35
2023-02-13T12:24:57.020Z,10.16
2023-02-13T12:27:35.379Z,10.08
2023-02-13T12:30:27.880Z,9.57
2023-02-13T12:33:05.924Z,9.87
2023-02-13T12:35:54.233Z,9.49
2023-02-13T12:38:35.592Z,9.64
2023-02-13T12:41:19.198Z,9.39
2023-02-13T12:44:08.732Z,9.59
2023-02-13T12:46:41.636Z,9.69
2023-02-13T12:49:29.807Z,9.61
2023-02-13T12:52:15.114Z,9.49
2023-02-13T12:55:00.559Z,9.31
2023-02-13T12:57:43.575Z,9.51
2023-02-13T13:00:23.467Z,9.39
2023-02-13T13:03:17.414Z,9.46
2023-02-13T13:06:11.713Z,9.73
2023-02-13T13:09:03.183Z,9.99
2023-02-13T13:11:48.197Z,9.85
2023-02-13T13:14:24.904Z,9.68
2023-02-13T13:17:01.705Z,9.91
2023-02-13T13:19:38.676Z,10.10
2023-02-13T13:22:14.476Z,9.78
2023-02-13T13:24:55.468Z,9.76
2023-02-13T13:27:27.644Z,9.62
2023-02-13T13:30:00.579Z,9.57
2023-02-13T13:32:30.602Z,9.77
2023-02-13T13:34:59.036Z,9.86
2023-02-13T13:37:35.199Z,10.10
2023-02-13T13:40:17.245Z,9.80
2023-02-13T13:42:52.201Z,9.68
2023-02-13T13:45:34.368Z,9.52
2023-02-13T13:48:18.137Z,9.37
2023-02-13T13:50:46.736Z,9.40
2023-02-13T13:53:19.378Z,9.16
2023-02-13T13:56:06.901Z,8.99
2023-02-13T13:58:38.567Z,8.97
2023-02-13T14:01:23.470Z,8.58
2023-02-13T14:03:52.860Z,8.44
2023-02-13T14:06:22.892Z,8.60
2023-02-13T14:09:29.005Z,8.53
2023-02-13T14:11:58.532Z,8.38
2023-02-13T14:14:53.752Z,8.25
2023-02-13T14:17:57.192Z,8.03
2023-02-13T14:20:35.770Z,7.93
2023-02-13T14:23:33.073Z,7.83
2023-02-13T14:26:37.994Z,7.57
2023-02-13T14:29:38.805Z,7.49
2023-02-13T14:32:18.031Z,7.42
2023-02-13T14:34:54.292Z,7.50
2023-02-13T14:37:30.270Z,7.26
2023-02-13T14:40:40.124Z,7.26
2023-02-13T14:43:22.133Z,7.19
2023-02-13T14:45:55.496Z,7.28
2023-02-13T14:48:34.286Z,7.17
2023-02-13T14:51:05.043Z,7.18
2023-02-13T14:53:53.281Z,7.06
2023-02-13T14:56:24.366Z,6.91
2023-02-13T14:58:59.928Z,6.87
2023-02-13T15:01:34.005Z,6.75
2023-02-13T15:04:14.882Z,6.79
2023-02-13T15:06:49.781Z,6.64
2023-02-13T15:09:39.937Z,5.94
2023-02-13T15:12:35.398Z,6.41
2023-02-13T15:15:30.459Z,6.44
2023-02-13T15:18:06.281Z,6.45
2023-02-13T15:20:36.189Z,6.37
2023-02-13T15:23:07.595Z,5.49
2023-02-13T15:25:38.151Z,5.74
2023-02-13T15:28:08.421Z,6.05
2023-02-13T15:30:37.988Z,6.09
2023-02-13T15:33:18.265Z,6.00
2023-02-13T15:35:46.818Z,5.93
2023-02-13T15:38:27.442Z,5.82
2023-02-13T15:40:59.221Z,5.78
2023-02-13T15:43:35.837Z,5.81
2023-02-13T15:46:07.192Z,5.26
2023-02-13T15:48:36.645Z,5.67
2023-02-13T15:51:04.913Z,5.60
2023-02-13T15:53:34.403Z,5.55
2023-02-13T15:56:04.607Z,5.53
2023-02-13T15:58:35.302Z,5.46
2023-02-13T16:01:06.720Z,5.35
2023-02-13T16:03:36.853Z,4.61
2023-02-13T16:06:06.696Z,5.06
2023-02-13T16:08:38.888Z,5.21
2023-02-13T16:11:29.884Z,5.09
2023-02-13T16:14:14.146Z,5.01
2023-02-13T16:16:50.019Z,4.90
2023-02-13T16:19:25.480Z,4.85
2023-02-13T16:21:54.943Z,4.89
2023-02-13T16:24:25.954Z,4.86
2023-02-13T16:26:54.697Z,4.84
2023-02-13T16:29:26.267Z,4.79
2023-02-13T16:32:04.324Z,4.74
2023-02-13T16:34:33.216Z,4.71
2023-02-13T16:37:01.258Z,4.68
2023-02-13T16:39:32.665Z,4.61
2023-02-13T16:42:01.787Z,4.13
2023-02-13T16:44:31.991Z,4.52
2023-02-13T16:47:02.968Z,4.50
2023-02-13T16:49:33.566Z,4.37
2023-02-13T16:52:11.800Z,4.35
2023-02-13T16:54:50.392Z,4.26
2023-02-13T16:57:24.976Z,4.21
2023-02-13T17:00:08.457Z,4.27
2023-02-13T17:02:37.123Z,4.11
2023-02-13T17:05:21.453Z,4.02
2023-02-13T17:07:51.946Z,4.15
2023-02-13T17:10:23.612Z,4.16
2023-02-13T17:12:52.682Z,4.04
2023-02-13T17:15:25.550Z,3.99
2023-02-13T17:17:54.029Z,3.65
2023-02-13T17:20:24.294Z,3.99
2023-02-13T17:22:53.954Z,3.93
2023-02-13T17:25:25.123Z,3.94
2023-02-13T17:27:57.605Z,3.89
2023-02-13T17:30:28.528Z,3.82
2023-02-13T17:33:00.079Z,3.71
2023-02-13T17:35:28.039Z,3.65
2023-02-13T17:37:55.941Z,3.32
2023-02-13T17:40:29.533Z,3.56
2023-02-13T17:42:59.504Z,3.53
2023-02-13T17:45:29.676Z,3.23
2023-02-13T17:47:58.178Z,3.35
2023-02-13T17:50:26.509Z,3.42
2023-02-13T17:52:54.697Z,3.38
2023-02-13T17:55:26.426Z,3.34
2023-02-13T17:57:56.472Z,3.33
2023-02-13T18:00:27.019Z,3.31
2023-02-13T18:02:55.946Z,3.27
2023-02-13T18:05:24.012Z,3.27
2023-02-13T18:07:52.399Z,3.26
2023-02-13T18:10:23.222Z,3.00
2023-02-13T18:12:53.778Z,3.14
2023-02-13T18:15:22.387Z,3.09
2023-02-13T18:17:50.529Z,3.08
2023-02-13T18:20:20.680Z,3.06
2023-02-13T18:22:51.304Z,3.04
2023-02-13T18:25:20.405Z,3.04
2023-02-13T18:27:49.072Z,3.02
2023-02-13T18:30:20.651Z,3.03
2023-02-13T18:32:56.216Z,2.67
2023-02-13T18:35:24.914Z,2.99
2023-02-13T18:37:52.818Z,2.62
2023-02-13T18:40:21.080Z,2.89
2023-02-13T18:42:51.095Z,2.85
2023-02-13T18:45:20.670Z,2.63
2023-02-13T18:47:48.625Z,2.79
2023-02-13T18:50:16.522Z,2.79
2023-02-13T18:52:44.983Z,2.73
2023-02-13T18:55:12.899Z,2.73
2023-02-13T18:57:43.455Z,2.66
2023-02-13T19:00:13.974Z,2.66
2023-02-13T19:02:43.190Z,2.66
2023-02-13T19:05:11.264Z,2.46
2023-02-13T19:07:39.165Z,2.65
2023-02-13T19:10:07.922Z,2.59
2023-02-13T19:12:35.878Z,2.66
2023-02-13T19:15:04.242Z,2.66
2023-02-13T19:17:33.486Z,2.44
2023-02-13T19:20:03.069Z,2.66
2023-02-13T19:22:31.184Z,2.54
2023-02-13T19:24:59.132Z,2.45
2023-02-13T19:27:27.884Z,1.15
2023-02-13T19:29:56.260Z,2.53
2023-02-13T19:32:24.150Z,2.45
2023-02-13T19:34:54.135Z,2.56
2023-02-13T19:37:25.224Z,2.59
2023-02-13T19:39:53.607Z,2.53
2023-02-13T19:42:22.079Z,2.11
2023-02-13T19:44:50.287Z,2.53
2023-02-13T19:47:18.489Z,2.48
2023-02-13T19:49:48.110Z,2.56
2023-02-13T19:52:16.499Z,2.53
2023-02-13T19:54:45.897Z,2.53
2023-02-13T19:57:14.717Z,2.61
2023-02-13T19:59:43.466Z,2.53
2023-02-13T20:02:16.009Z,2.61
2023-02-13T20:04:44.229Z,2.58
2023-02-13T20:07:12.234Z,2.51
2023-02-13T20:09:41.374Z,2.31
2023-02-13T20:12:10.574Z,2.57
2023-02-13T20:14:39.066Z,2.14
2023-02-13T20:17:09.461Z,2.55
2023-02-13T20:19:38.512Z,2.53
2023-02-13T20:22:06.581Z,2.52
2023-02-13T20:24:34.925Z,2.18
2023-02-13T20:27:02.844Z,2.42
2023-02-13T20:29:33.602Z,2.56
2023-02-13T20:32:02.035Z,2.53
2023-02-13T20:34:37.613Z,2.42
2023-02-13T20:37:15.666Z,2.56
2023-02-13T20:39:43.722Z,2.33
2023-02-13T20:42:12.148Z,2.28
2023-02-13T20:44:41.617Z,2.58
2023-02-13T20:47:09.757Z,2.50
2023-02-13T20:49:37.973Z,2.58
2023-02-13T20:52:06.299Z,2.58
2023-02-13T20:54:34.434Z,2.53
2023-02-13T20:57:02.390Z,2.54
2023-02-13T20:59:33.122Z,2.54
2023-02-13T21:02:02.448Z,2.51
2023-02-13T21:04:32.680Z,2.51
2023-02-13T21:07:00.574Z,2.46
2023-02-13T21:09:28.747Z,2.39
2023-02-13T21:11:56.592Z,2.35
2023-02-13T21:14:24.457Z,2.28
2023-02-13T21:16:52.384Z,2.27
2023-02-13T21:19:21.814Z,2.32
2023-02-13T21:21:49.687Z,2.31
2023-02-13T21:24:20.280Z,2.30
2023-02-13T21:26:49.937Z,2.23
2023-02-13T21:29:17.796Z,2.24
2023-02-13T21:31:48.528Z,2.17
2023-02-13T21:34:18.049Z,2.22
2023-02-13T21:36:47.651Z,2.22
2023-02-13T21:39:16.208Z,2.26
2023-02-13T21:41:45.758Z,2.30
2023-02-13T21:44:14.809Z,2.18
2023-02-13T21:46:43.726Z,2.28
2023-02-13T21:49:14.359Z,2.23
2023-02-13T21:51:44.023Z,2.32
2023-02-13T21:54:13.900Z,2.16
2023-02-13T21:56:43.742Z,1.73
2023-02-13T21:59:15.666Z,2.13
2023-02-13T22:01:43.997Z,1.88
2023-02-13T22:04:11.956Z,1.79
2023-02-13T22:06:41.298Z,1.69
2023-02-13T22:09:11.284Z,1.57
2023-02-13T22:11:40.961Z,1.59
2023-02-13T22:14:12.751Z,1.52
2023-02-13T22:16:42.532Z,1.49
2023-02-13T22:19:13.929Z,1.38
2023-02-13T22:21:41.855Z,1.33
2023-02-13T22:24:10.251Z,1.31
2023-02-13T22:26:42.205Z,1.24
2023-02-13T22:29:12.247Z,1.53
2023-02-13T22:31:40.305Z,1.63
2023-02-13T22:34:08.405Z,1.73
2023-02-13T22:36:39.098Z,1.80
2023-02-13T22:39:08.629Z,1.85
2023-02-13T22:41:36.741Z,1.64
2023-02-13T22:44:06.422Z,1.86
2023-02-13T22:46:35.130Z,1.99
2023-02-13T22:49:03.601Z,1.83
2023-02-13T22:51:34.016Z,2.02
2023-02-13T22:54:02.366Z,1.93
2023-02-13T22:56:31.692Z,1.66
2023-02-13T22:59:00.816Z,2.05
2023-02-13T23:01:30.609Z,1.93
2023-02-13T23:03:58.685Z,2.03
2023-02-13T23:06:28.583Z,2.02
2023-02-13T23:08:57.298Z,2.01
2023-02-13T23:11:44.444Z,1.96
2023-02-13T23:14:12.882Z,2.13
2023-02-13T23:17:01.490Z,2.06
2023-02-13T23:19:30.116Z,2.15
2023-02-13T23:21:58.394Z,2.16
2023-02-13T23:24:26.381Z,2.16
2023-02-13T23:26:54.230Z,2.12
2023-02-13T23:29:22.180Z,2.07
2023-02-13T23:31:51.576Z,2.03
2023-02-13T23:34:19.523Z,1.95
2023-02-13T23:36:47.464Z,1.89
2023-02-13T23:39:15.370Z,1.84
2023-02-13T23:41:43.267Z,1.89
2023-02-13T23:44:11.125Z,1.95
2023-02-13T23:46:39.175Z,1.92
2023-02-13T23:49:08.497Z,1.78
2023-02-13T23:51:36.368Z,1.87
2023-02-13T23:54:04.964Z,1.67
2023-02-13T23:56:33.057Z,0.99
2023-02-13T23:59:00.859Z,0.44
